![]() |
EMODnet Physics ERDDAP
Easier access to scientific data |
log in|
Brought to you by EMODnet Physics |
| Dataset Title: | NDBC - Collection of dew point temperature (DEWT) TimeSeries - IN SITU MultiPointTimeSeriesObservation
|
| Institution: | NDBC (Dataset ID: TS_DEWT_NDBC) |
| Information: | Summary
| License
| FGDC
| ISO 19115
| Metadata
| Background
| Subset
| Data Access Form
| Make a graph
|
| Name | Last modified | Size | Description | |
|---|---|---|---|---|
| Parent Directory | - | - | ||
| 46072_TS_DEWT_012003.nc | 06-Dec-2024 06:02 | 440232 | ||
| 46072_TS_DEWT_012004.nc | 06-Dec-2024 06:04 | 594754 | ||
| 46072_TS_DEWT_012005.nc | 06-Dec-2024 06:06 | 1625137 | ||
| 46072_TS_DEWT_012006.nc | 06-Dec-2024 06:08 | 1625501 | ||
| 46072_TS_DEWT_012008.nc | 06-Dec-2024 06:11 | 1474835 | ||
| 46072_TS_DEWT_012009.nc | 06-Dec-2024 06:13 | 1625854 | ||
| 46072_TS_DEWT_012010.nc | 06-Dec-2024 06:15 | 1462687 | ||
| 46072_TS_DEWT_012012.nc | 06-Dec-2024 06:16 | 1159247 | ||
| 46072_TS_DEWT_012013.nc | 06-Dec-2024 06:18 | 1626645 | ||
| 46072_TS_DEWT_012015.nc | 06-Dec-2024 06:21 | 1626920 | ||
| 46072_TS_DEWT_012019.nc | 06-Dec-2024 06:25 | 1477101 | ||
| 46072_TS_DEWT_012021.nc | 06-Dec-2024 06:32 | 1473161 | ||
| 46072_TS_DEWT_012022.nc | 06-Dec-2024 06:45 | 1476183 | ||
| 46072_TS_DEWT_012023.nc | 06-Dec-2024 06:50 | 1476038 | ||
| 46072_TS_DEWT_012025.nc | 07-Feb-2025 11:49 | 1476886 | ||
| 46072_TS_DEWT_022003.nc | 06-Dec-2024 06:02 | 1477058 | ||
| 46072_TS_DEWT_022004.nc | 06-Dec-2024 06:04 | 992968 | ||
| 46072_TS_DEWT_022005.nc | 06-Dec-2024 06:06 | 1476900 | ||
| 46072_TS_DEWT_022006.nc | 06-Dec-2024 06:08 | 1477099 | ||
| 46072_TS_DEWT_022008.nc | 06-Dec-2024 06:11 | 1476345 | ||
| 46072_TS_DEWT_022009.nc | 06-Dec-2024 06:13 | 1626807 | ||
| 46072_TS_DEWT_022010.nc | 06-Dec-2024 06:15 | 1625449 | ||
| 46072_TS_DEWT_022012.nc | 06-Dec-2024 06:16 | 1626366 | ||
| 46072_TS_DEWT_022013.nc | 06-Dec-2024 06:19 | 1625818 | ||
| 46072_TS_DEWT_022015.nc | 06-Dec-2024 06:21 | 1626223 | ||
| 46072_TS_DEWT_022019.nc | 06-Dec-2024 06:25 | 1626912 | ||
| 46072_TS_DEWT_022021.nc | 06-Dec-2024 06:33 | 1151449 | ||
| 46072_TS_DEWT_022022.nc | 06-Dec-2024 06:46 | 1477625 | ||
| 46072_TS_DEWT_022023.nc | 06-Dec-2024 06:50 | 1626452 | ||
| 46072_TS_DEWT_022025.nc | 01-Mar-2025 08:22 | 1625901 | ||
| 46072_TS_DEWT_032003.nc | 06-Dec-2024 06:03 | 1476989 | ||
| 46072_TS_DEWT_032004.nc | 06-Dec-2024 06:04 | 1476748 | ||
| 46072_TS_DEWT_032005.nc | 06-Dec-2024 06:06 | 1476041 | ||
| 46072_TS_DEWT_032006.nc | 06-Dec-2024 06:08 | 1476926 | ||
| 46072_TS_DEWT_032008.nc | 06-Dec-2024 06:11 | 1477039 | ||
| 46072_TS_DEWT_032009.nc | 06-Dec-2024 06:13 | 1476356 | ||
| 46072_TS_DEWT_032010.nc | 06-Dec-2024 06:15 | 1476999 | ||
| 46072_TS_DEWT_032012.nc | 06-Dec-2024 06:17 | 1476777 | ||
| 46072_TS_DEWT_032013.nc | 06-Dec-2024 06:19 | 1477053 | ||
| 46072_TS_DEWT_032015.nc | 06-Dec-2024 06:21 | 1476119 | ||
| 46072_TS_DEWT_032019.nc | 06-Dec-2024 06:26 | 1626743 | ||
| 46072_TS_DEWT_032021.nc | 06-Dec-2024 06:35 | 1477680 | ||
| 46072_TS_DEWT_032022.nc | 06-Dec-2024 06:46 | 1626293 | ||
| 46072_TS_DEWT_032023.nc | 06-Dec-2024 06:50 | 1472473 | ||
| 46072_TS_DEWT_032025.nc | 02-Apr-2025 06:42 | 1625714 | ||
| 46072_TS_DEWT_042003.nc | 06-Dec-2024 06:03 | 1626051 | ||
| 46072_TS_DEWT_042004.nc | 06-Dec-2024 06:04 | 1624809 | ||
| 46072_TS_DEWT_042005.nc | 06-Dec-2024 06:06 | 1626039 | ||
| 46072_TS_DEWT_042006.nc | 06-Dec-2024 06:09 | 1626967 | ||
| 46072_TS_DEWT_042008.nc | 06-Dec-2024 06:11 | 1626968 | ||
| 46072_TS_DEWT_042009.nc | 06-Dec-2024 06:13 | 1626892 | ||
| 46072_TS_DEWT_042010.nc | 06-Dec-2024 06:15 | 1477252 | ||
| 46072_TS_DEWT_042012.nc | 06-Dec-2024 06:17 | 1626670 | ||
| 46072_TS_DEWT_042013.nc | 06-Dec-2024 06:19 | 1626655 | ||
| 46072_TS_DEWT_042015.nc | 06-Dec-2024 06:22 | 1477207 | ||
| 46072_TS_DEWT_042019.nc | 06-Dec-2024 06:26 | 1626609 | ||
| 46072_TS_DEWT_042021.nc | 06-Dec-2024 06:37 | 1625269 | ||
| 46072_TS_DEWT_042022.nc | 06-Dec-2024 06:46 | 1626961 | ||
| 46072_TS_DEWT_042023.nc | 06-Dec-2024 06:51 | 1626975 | ||
| 46072_TS_DEWT_042025.nc | 01-May-2025 04:25 | 1626636 | ||
| 46072_TS_DEWT_052003.nc | 06-Dec-2024 06:03 | 1476167 | ||
| 46072_TS_DEWT_052004.nc | 06-Dec-2024 06:04 | 1477055 | ||
| 46072_TS_DEWT_052005.nc | 06-Dec-2024 06:07 | 1476766 | ||
| 46072_TS_DEWT_052006.nc | 06-Dec-2024 06:09 | 1476707 | ||
| 46072_TS_DEWT_052008.nc | 06-Dec-2024 06:11 | 1477028 | ||
| 46072_TS_DEWT_052009.nc | 06-Dec-2024 06:14 | 1477046 | ||
| 46072_TS_DEWT_052012.nc | 06-Dec-2024 06:17 | 1476440 | ||
| 46072_TS_DEWT_052013.nc | 06-Dec-2024 06:19 | 1477083 | ||
| 46072_TS_DEWT_052015.nc | 06-Dec-2024 06:22 | 1477097 | ||
| 46072_TS_DEWT_052016.nc | 06-Dec-2024 06:23 | 1476920 | ||
| 46072_TS_DEWT_052019.nc | 06-Dec-2024 06:26 | 1626009 | ||
| 46072_TS_DEWT_052021.nc | 06-Dec-2024 06:39 | 1158574 | ||
| 46072_TS_DEWT_052022.nc | 06-Dec-2024 06:47 | 1626684 | ||
| 46072_TS_DEWT_052023.nc | 06-Dec-2024 06:51 | 1476015 | ||
| 46072_TS_DEWT_052025.nc | 01-Jun-2025 04:15 | 418876 | ||
| 46072_TS_DEWT_062003.nc | 06-Dec-2024 06:03 | 1626713 | ||
| 46072_TS_DEWT_062004.nc | 06-Dec-2024 06:05 | 1625618 | ||
| 46072_TS_DEWT_062005.nc | 06-Dec-2024 06:07 | 1626665 | ||
| 46072_TS_DEWT_062006.nc | 06-Dec-2024 06:09 | 1626552 | ||
| 46072_TS_DEWT_062008.nc | 06-Dec-2024 06:12 | 1626836 | ||
| 46072_TS_DEWT_062009.nc | 06-Dec-2024 06:14 | 1475789 | ||
| 46072_TS_DEWT_062012.nc | 06-Dec-2024 06:17 | 1476401 | ||
| 46072_TS_DEWT_062013.nc | 06-Dec-2024 06:19 | 1476863 | ||
| 46072_TS_DEWT_062014.nc | 06-Dec-2024 06:20 | 1476666 | ||
| 46072_TS_DEWT_062015.nc | 06-Dec-2024 06:22 | 1476736 | ||
| 46072_TS_DEWT_062016.nc | 06-Dec-2024 06:23 | 1472009 | ||
| 46072_TS_DEWT_062018.nc | 06-Dec-2024 06:24 | 1477095 | ||
| 46072_TS_DEWT_062019.nc | 06-Dec-2024 06:26 | 1477096 | ||
| 46072_TS_DEWT_062021.nc | 06-Dec-2024 06:41 | 1477105 | ||
| 46072_TS_DEWT_062022.nc | 06-Dec-2024 06:47 | 421713 | ||
| 46072_TS_DEWT_062023.nc | 06-Dec-2024 06:51 | 424848 | ||
| 46072_TS_DEWT_062025.nc | 01-Jul-2025 03:48 | 1626611 | ||
| 46072_TS_DEWT_072002.nc | 06-Dec-2024 06:01 | 1471792 | ||
| 46072_TS_DEWT_072004.nc | 06-Dec-2024 06:05 | 1477565 | ||
| 46072_TS_DEWT_072005.nc | 06-Dec-2024 06:07 | 1465780 | ||
| 46072_TS_DEWT_072006.nc | 06-Dec-2024 06:09 | 1464983 | ||
| 46072_TS_DEWT_072008.nc | 06-Dec-2024 06:12 | 1626322 | ||
| 46072_TS_DEWT_072009.nc | 06-Dec-2024 06:14 | 1474871 | ||
| 46072_TS_DEWT_072012.nc | 06-Dec-2024 06:17 | 1626918 | ||
| 46072_TS_DEWT_072013.nc | 06-Dec-2024 06:19 | 1822680 | ||
| 46072_TS_DEWT_072014.nc | 06-Dec-2024 06:20 | 1835712 | ||
| 46072_TS_DEWT_072015.nc | 06-Dec-2024 06:22 | 4098381 | ||
| 46072_TS_DEWT_072016.nc | 06-Dec-2024 06:23 | 2005665 | ||
| 46072_TS_DEWT_072018.nc | 06-Dec-2024 06:24 | 1654657 | ||
| 46072_TS_DEWT_072019.nc | 06-Dec-2024 06:26 | 1657804 | ||
| 46072_TS_DEWT_072020.nc | 06-Dec-2024 06:27 | 3039753 | ||
| 46072_TS_DEWT_072021.nc | 06-Dec-2024 06:43 | 4678947 | ||
| 46072_TS_DEWT_072022.nc | 06-Dec-2024 06:47 | 1829958 | ||
| 46072_TS_DEWT_072023.nc | 06-Dec-2024 06:52 | 1833521 | ||
| 46072_TS_DEWT_072025.nc | 01-Aug-2025 03:50 | 4492833 | ||
| 46072_TS_DEWT_082002.nc | 06-Dec-2024 06:01 | 3951973 | ||
| 46072_TS_DEWT_082004.nc | 06-Dec-2024 06:05 | 640577 | ||
| 46072_TS_DEWT_082005.nc | 06-Dec-2024 06:07 | 1674428 | ||
| 46072_TS_DEWT_082006.nc | 06-Dec-2024 06:09 | 1679872 | ||
| 46072_TS_DEWT_082008.nc | 06-Dec-2024 06:12 | 4663522 | ||
| 46072_TS_DEWT_082009.nc | 06-Dec-2024 06:14 | 1822632 | ||
| 46072_TS_DEWT_082012.nc | 06-Dec-2024 06:17 | 1830326 | ||
| 46072_TS_DEWT_082013.nc | 06-Dec-2024 06:20 | 1840328 | ||
| 46072_TS_DEWT_082014.nc | 06-Dec-2024 06:20 | 5305485 | ||
| 46072_TS_DEWT_082015.nc | 06-Dec-2024 06:22 | 1677785 | ||
| 46072_TS_DEWT_082016.nc | 06-Dec-2024 06:23 | 1674129 | ||
| 46072_TS_DEWT_082018.nc | 06-Dec-2024 06:24 | 1673849 | ||
| 46072_TS_DEWT_082019.nc | 06-Dec-2024 06:26 | 2895593 | ||
| 46072_TS_DEWT_082020.nc | 06-Dec-2024 06:28 | 1832566 | ||
| 46072_TS_DEWT_082021.nc | 06-Dec-2024 06:43 | 1831845 | ||
| 46072_TS_DEWT_082022.nc | 06-Dec-2024 06:48 | 1828813 | ||
| 46072_TS_DEWT_082023.nc | 06-Dec-2024 06:52 | 1782436 | ||
| 46072_TS_DEWT_082025.nc | 01-Sep-2025 03:57 | 1834269 | ||
| 46072_TS_DEWT_092002.nc | 06-Dec-2024 06:02 | 1835146 | ||
| 46072_TS_DEWT_092003.nc | 06-Dec-2024 06:03 | 1834942 | ||
| 46072_TS_DEWT_092004.nc | 06-Dec-2024 06:05 | 3730045 | ||
| 46072_TS_DEWT_092005.nc | 06-Dec-2024 06:07 | 1679148 | ||
| 46072_TS_DEWT_092006.nc | 06-Dec-2024 06:10 | 1678801 | ||
| 46072_TS_DEWT_092007.nc | 06-Dec-2024 06:10 | 1681285 | ||
| 46072_TS_DEWT_092008.nc | 06-Dec-2024 06:12 | 4945574 | ||
| 46072_TS_DEWT_092011.nc | 06-Dec-2024 06:16 | 1641230 | ||
| 46072_TS_DEWT_092012.nc | 06-Dec-2024 06:18 | 1749031 | ||
| 46072_TS_DEWT_092013.nc | 06-Dec-2024 06:20 | 1836954 | ||
| 46072_TS_DEWT_092014.nc | 06-Dec-2024 06:20 | 494918 | ||
| 46072_TS_DEWT_092015.nc | 06-Dec-2024 06:22 | 5722710 | ||
| 46072_TS_DEWT_092016.nc | 06-Dec-2024 06:23 | 1674499 | ||
| 46072_TS_DEWT_092018.nc | 06-Dec-2024 06:25 | 1676366 | ||
| 46072_TS_DEWT_092019.nc | 06-Dec-2024 06:26 | 1677702 | ||
| 46072_TS_DEWT_092020.nc | 06-Dec-2024 06:28 | 5938080 | ||
| 46072_TS_DEWT_092021.nc | 06-Dec-2024 06:44 | 5667920 | ||
| 46072_TS_DEWT_092022.nc | 06-Dec-2024 06:48 | 1829800 | ||
| 46072_TS_DEWT_092023.nc | 06-Dec-2024 06:52 | 1672787 | ||
| 46072_TS_DEWT_092025.nc | 01-Oct-2025 03:18 | 1804014 | ||
| 46072_TS_DEWT_102002.nc | 06-Dec-2024 06:02 | 5650492 | ||
| 46072_TS_DEWT_102003.nc | 06-Dec-2024 06:03 | 5286025 | ||
| 46072_TS_DEWT_102004.nc | 06-Dec-2024 06:05 | 1475354 | ||
| 46072_TS_DEWT_102005.nc | 06-Dec-2024 06:07 | 1626657 | ||
| 46072_TS_DEWT_102006.nc | 06-Dec-2024 06:10 | 1625705 | ||
| 46072_TS_DEWT_102007.nc | 06-Dec-2024 06:10 | 1457557 | ||
| 46072_TS_DEWT_102008.nc | 06-Dec-2024 06:12 | 1827273 | ||
| 46072_TS_DEWT_102009.nc | 06-Dec-2024 06:14 | 1477577 | ||
| 46072_TS_DEWT_102011.nc | 06-Dec-2024 06:16 | 1832250 | ||
| 46072_TS_DEWT_102012.nc | 06-Dec-2024 06:18 | 1693042 | ||
| 46072_TS_DEWT_102013.nc | 06-Dec-2024 06:20 | 1677315 | ||
| 46072_TS_DEWT_102014.nc | 06-Dec-2024 06:21 | 1674468 | ||
| 46072_TS_DEWT_102015.nc | 06-Dec-2024 06:22 | 1837175 | ||
| 46072_TS_DEWT_102016.nc | 06-Dec-2024 06:24 | 1835163 | ||
| 46072_TS_DEWT_102018.nc | 06-Dec-2024 06:25 | 1833881 | ||
| 46072_TS_DEWT_102019.nc | 06-Dec-2024 06:27 | 4961419 | ||
| 46072_TS_DEWT_102020.nc | 06-Dec-2024 06:28 | 1825556 | ||
| 46072_TS_DEWT_102021.nc | 06-Dec-2024 06:44 | 1469660 | ||
| 46072_TS_DEWT_102022.nc | 06-Dec-2024 06:49 | 1473464 | ||
| 46072_TS_DEWT_102023.nc | 06-Dec-2024 06:53 | 1462102 | ||
| 46072_TS_DEWT_102025.nc | 01-Nov-2025 04:20 | 1469167 | ||
| 46072_TS_DEWT_112002.nc | 06-Dec-2024 06:02 | 1643451 | ||
| 46072_TS_DEWT_112004.nc | 06-Dec-2024 06:05 | 1164164 | ||
| 46072_TS_DEWT_112005.nc | 06-Dec-2024 06:08 | 1523892 | ||
| 46072_TS_DEWT_112007.nc | 06-Dec-2024 06:10 | 1520639 | ||
| 46072_TS_DEWT_112008.nc | 06-Dec-2024 06:12 | 1615681 | ||
| 46072_TS_DEWT_112009.nc | 06-Dec-2024 06:15 | 1661902 | ||
| 46072_TS_DEWT_112011.nc | 06-Dec-2024 06:16 | 1654519 | ||
| 46072_TS_DEWT_112012.nc | 06-Dec-2024 06:18 | 1658181 | ||
| 46072_TS_DEWT_112014.nc | 06-Dec-2024 06:21 | 1651707 | ||
| 46072_TS_DEWT_112015.nc | 06-Dec-2024 06:23 | 3448742 | ||
| 46072_TS_DEWT_112016.nc | 06-Dec-2024 06:24 | 1624219 | ||
| 46072_TS_DEWT_112018.nc | 06-Dec-2024 06:25 | 1626604 | ||
| 46072_TS_DEWT_112019.nc | 06-Dec-2024 06:27 | 1146571 | ||
| 46072_TS_DEWT_112020.nc | 06-Dec-2024 06:29 | 1626641 | ||
| 46072_TS_DEWT_112021.nc | 06-Dec-2024 06:45 | 1665217 | ||
| 46072_TS_DEWT_112022.nc | 06-Dec-2024 06:49 | 1625179 | ||
| 46072_TS_DEWT_112023.nc | 06-Dec-2024 06:53 | 1625717 | ||
| 46072_TS_DEWT_112024.nc | 17-Jan-2025 13:42 | 1829797 | ||
| 46072_TS_DEWT_112025.nc | 01-Dec-2025 05:31 | 1738670 | ||
| 46072_TS_DEWT_122002.nc | 06-Dec-2024 06:02 | 1679161 | ||
| 46072_TS_DEWT_122004.nc | 06-Dec-2024 06:06 | 1314815 | ||
| 46072_TS_DEWT_122005.nc | 06-Dec-2024 06:08 | 1829579 | ||
| 46072_TS_DEWT_122007.nc | 06-Dec-2024 06:10 | 1837297 | ||
| 46072_TS_DEWT_122008.nc | 06-Dec-2024 06:13 | 4635071 | ||
| 46072_TS_DEWT_122009.nc | 06-Dec-2024 06:15 | 1476948 | ||
| 46072_TS_DEWT_122011.nc | 06-Dec-2024 06:16 | 1476838 | ||
| 46072_TS_DEWT_122012.nc | 06-Dec-2024 06:18 | 1473500 | ||
| 46072_TS_DEWT_122014.nc | 06-Dec-2024 06:21 | 1476261 | ||
| 46072_TS_DEWT_122015.nc | 06-Dec-2024 06:23 | 1659106 | ||
| 46072_TS_DEWT_122016.nc | 06-Dec-2024 06:24 | 1475647 | ||
| 46072_TS_DEWT_122018.nc | 06-Dec-2024 06:25 | 1476432 | ||
| 46072_TS_DEWT_122019.nc | 06-Dec-2024 06:27 | 1675286 | ||
| 46072_TS_DEWT_122020.nc | 06-Dec-2024 06:30 | 1647269 | ||
| 46072_TS_DEWT_122021.nc | 06-Dec-2024 06:45 | 1672231 | ||
| 46072_TS_DEWT_122022.nc | 06-Dec-2024 06:49 | 1678600 | ||
| 46072_TS_DEWT_122023.nc | 06-Dec-2024 06:53 | 1524190 | ||
| 46072_TS_DEWT_122024.nc | 22-Jan-2025 15:51 | 1679209 | ||
| 46072_TS_DEWT_122025.nc | 03-Dec-2025 04:58 | 4849255 | ||